createdAt,value
2022-10-19T00:04:08.840Z,13.98
2022-10-19T00:09:10.335Z,13.23
2022-10-19T00:14:11.670Z,13.65
2022-10-19T00:19:14.304Z,13.00
2022-10-19T00:24:13.043Z,12.80
2022-10-19T00:29:13.765Z,13.38
2022-10-19T00:34:12.738Z,12.88
2022-10-19T00:39:14.651Z,13.75
2022-10-19T00:44:13.434Z,13.50
2022-10-19T00:49:28.756Z,12.13
2022-10-19T00:54:28.011Z,13.23
2022-10-19T00:59:31.763Z,10.85
2022-10-19T01:04:33.949Z,12.80
2022-10-19T01:09:32.690Z,10.73
2022-10-19T01:14:59.094Z,11.57
2022-10-19T01:20:19.668Z,11.18
2022-10-19T01:25:37.276Z,10.35
2022-10-19T01:30:45.235Z,11.18
2022-10-19T01:35:43.913Z,10.77
2022-10-19T01:40:59.266Z,9.98
2022-10-19T01:46:21.149Z,11.20
2022-10-19T01:51:27.054Z,10.73
2022-10-19T01:56:28.359Z,10.25
2022-10-19T02:01:33.152Z,10.75
2022-10-19T02:06:32.106Z,10.50
2022-10-19T02:11:31.791Z,10.40
2022-10-19T02:16:38.680Z,9.43
2022-10-19T02:21:37.460Z,11.10
2022-10-19T02:26:36.215Z,9.48
2022-10-19T02:32:25.007Z,9.73
2022-10-19T02:37:25.581Z,9.77
2022-10-19T02:42:51.155Z,9.82
2022-10-19T02:47:55.355Z,10.88
2022-10-19T02:52:54.114Z,9.73
2022-10-19T02:57:53.801Z,9.32
2022-10-19T03:02:52.689Z,9.65
2022-10-19T03:07:51.479Z,8.35
2022-10-19T03:12:50.193Z,9.75
2022-10-19T03:17:53.058Z,9.05
2022-10-19T03:27:55.650Z,9.10
2022-10-19T03:32:54.340Z,9.13
2022-10-19T03:37:53.106Z,8.18
2022-10-19T03:42:51.824Z,8.70
2022-10-19T03:47:51.406Z,8.90
2022-10-19T03:52:50.244Z,9.82
2022-10-19T03:57:48.996Z,8.88
2022-10-19T04:02:47.732Z,8.93
2022-10-19T04:07:46.400Z,9.60
2022-10-19T04:12:45.078Z,8.82
2022-10-19T04:17:45.693Z,8.18
2022-10-19T04:22:47.535Z,7.95
2022-10-19T04:27:46.258Z,8.20
2022-10-19T04:32:45.158Z,7.18
2022-10-19T04:37:44.205Z,8.18
2022-10-19T04:42:43.149Z,6.43
2022-10-19T04:47:41.855Z,7.45
2022-10-19T04:52:40.513Z,5.97
2022-10-19T04:57:39.170Z,6.07
2022-10-19T05:02:43.074Z,5.57
2022-10-19T05:07:41.769Z,6.10
2022-10-19T05:12:40.417Z,6.20
2022-10-19T05:17:39.236Z,6.57
2022-10-19T05:22:39.111Z,6.82
2022-10-19T05:27:37.783Z,8.35
2022-10-19T05:32:36.548Z,9.27
2022-10-19T05:37:35.443Z,8.43
2022-10-19T05:42:36.684Z,8.52
2022-10-19T05:47:38.577Z,7.07
2022-10-19T05:52:40.441Z,7.15
2022-10-19T05:57:39.207Z,7.40
2022-10-19T06:02:37.901Z,6.30
2022-10-19T06:07:36.981Z,5.85
2022-10-19T06:12:35.788Z,6.65
2022-10-19T06:17:34.892Z,5.18
2022-10-19T06:22:33.746Z,5.38
2022-10-19T06:27:32.847Z,5.43
2022-10-19T06:32:34.267Z,6.20
2022-10-19T06:37:33.208Z,6.45
2022-10-19T06:42:32.718Z,5.88
2022-10-19T06:47:33.343Z,5.47
2022-10-19T06:52:33.716Z,5.47
2022-10-19T06:57:33.084Z,4.18
2022-10-19T07:02:33.509Z,3.95
2022-10-19T07:07:32.522Z,2.90
2022-10-19T07:12:31.523Z,3.40
2022-10-19T07:17:30.343Z,4.38
2022-10-19T07:22:28.976Z,3.03
2022-10-19T07:27:28.086Z,2.30
2022-10-19T07:32:29.175Z,1.55
2022-10-19T07:37:27.878Z,2.03
2022-10-19T07:42:30.463Z,1.80
2022-10-19T07:47:29.199Z,1.50
2022-10-19T07:52:28.543Z,1.98
2022-10-19T07:57:28.740Z,1.85
2022-10-19T08:02:34.898Z,2.33
2022-10-19T08:07:46.074Z,2.95
2022-10-19T08:12:44.789Z,2.15
2022-10-19T08:17:43.438Z,3.33
2022-10-19T08:22:45.169Z,2.70
2022-10-19T08:27:43.871Z,2.95
2022-10-19T08:32:42.610Z,1.98
2022-10-19T08:37:45.294Z,2.05
2022-10-19T08:42:55.562Z,2.30
2022-10-19T08:48:19.754Z,3.08
2022-10-19T08:53:37.339Z,2.00
2022-10-19T08:58:45.140Z,2.63
2022-10-19T09:04:02.073Z,2.08
2022-10-19T09:09:00.982Z,2.47
2022-10-19T09:14:18.342Z,4.18
2022-10-19T09:19:30.859Z,2.30
2022-10-19T09:24:44.449Z,2.17
2022-10-19T09:29:52.622Z,2.20
2022-10-19T09:34:54.357Z,2.45
2022-10-19T09:39:55.497Z,2.22
2022-10-19T09:44:55.429Z,1.83
2022-10-19T09:50:08.026Z,1.50
2022-10-19T09:55:25.283Z,1.80
2022-10-19T10:00:31.175Z,2.28
2022-10-19T10:05:36.117Z,2.10
2022-10-19T10:10:42.491Z,1.92
2022-10-19T10:15:48.289Z,2.60
2022-10-19T10:21:14.162Z,1.70
2022-10-19T10:26:19.998Z,1.77
2022-10-19T10:31:30.408Z,1.63
2022-10-19T10:36:32.004Z,1.90
2022-10-19T10:41:37.485Z,1.95
2022-10-19T10:46:46.684Z,1.55
2022-10-19T10:57:06.279Z,1.25
2022-10-19T11:02:42.887Z,1.23
2022-10-19T11:07:45.656Z,0.70
2022-10-19T11:12:49.651Z,0.88
2022-10-19T11:17:57.022Z,0.80
2022-10-19T11:23:07.416Z,0.90
2022-10-19T11:28:29.343Z,0.80
2022-10-19T11:33:49.447Z,1.00
2022-10-19T11:39:27.461Z,0.88
2022-10-19T11:44:26.185Z,1.23
2022-10-19T11:50:03.016Z,0.85
2022-10-19T11:55:14.958Z,1.20
2022-10-19T12:00:39.062Z,0.40
2022-10-19T12:05:52.435Z,0.63
2022-10-19T12:11:21.036Z,0.50
2022-10-19T12:16:24.491Z,0.82
2022-10-19T12:21:29.419Z,0.55
2022-10-19T12:26:32.744Z,0.55
2022-10-19T12:31:32.641Z,0.40
2022-10-19T12:36:43.543Z,0.82
2022-10-19T12:41:53.788Z,0.50
2022-10-19T12:47:22.717Z,0.40
2022-10-19T12:52:49.073Z,0.30
2022-10-19T12:57:56.559Z,0.20
2022-10-19T13:03:03.252Z,0.40
2022-10-19T13:08:06.977Z,0.40
2022-10-19T13:13:46.518Z,0.50
2022-10-19T13:19:14.158Z,0.70
2022-10-19T13:24:25.108Z,0.38
2022-10-19T13:29:39.422Z,0.30
2022-10-19T13:34:38.789Z,0.40
2022-10-19T13:39:39.382Z,0.40
2022-10-19T13:45:04.684Z,0.43
2022-10-19T13:50:26.172Z,0.35
2022-10-19T13:55:47.168Z,0.30
2022-10-19T14:06:17.403Z,0.70
2022-10-19T14:11:25.682Z,0.60
2022-10-19T14:16:24.482Z,0.80
2022-10-19T14:21:34.701Z,0.43
2022-10-19T14:26:34.703Z,0.63
2022-10-19T14:31:37.292Z,0.73
2022-10-19T14:36:39.257Z,0.70
2022-10-19T14:41:38.140Z,1.15
2022-10-19T14:46:37.389Z,0.75
2022-10-19T14:51:45.328Z,0.80
2022-10-19T14:56:56.069Z,0.40
2022-10-19T15:01:58.244Z,1.02
2022-10-19T15:07:00.237Z,0.43
2022-10-19T15:12:08.371Z,1.27
2022-10-19T15:17:32.975Z,1.63
2022-10-19T15:22:35.430Z,0.73
2022-10-19T15:27:45.488Z,0.50
2022-10-19T15:32:49.848Z,0.65
2022-10-19T15:37:50.130Z,0.60
2022-10-19T15:42:49.057Z,0.60
2022-10-19T15:48:15.479Z,0.82
2022-10-19T15:53:18.383Z,0.77
2022-10-19T15:58:17.942Z,1.10
2022-10-19T16:03:17.347Z,2.00
2022-10-19T16:08:16.362Z,1.67
2022-10-19T16:13:15.197Z,1.70
2022-10-19T16:18:16.640Z,2.22
2022-10-19T16:23:15.495Z,1.60
2022-10-19T16:28:14.307Z,1.65
2022-10-19T16:33:13.076Z,1.35
2022-10-19T16:38:12.071Z,1.58
2022-10-19T16:43:10.901Z,1.20
2022-10-19T16:48:12.114Z,1.30
2022-10-19T16:53:11.241Z,1.08
2022-10-19T16:58:09.911Z,1.10
2022-10-19T17:03:08.745Z,1.88
2022-10-19T17:08:09.181Z,1.90
2022-10-19T17:13:07.931Z,1.63
2022-10-19T17:18:06.707Z,1.42
2022-10-19T17:23:05.552Z,1.15
2022-10-19T17:28:04.213Z,1.45
2022-10-19T17:33:03.101Z,1.48
2022-10-19T17:38:01.827Z,1.70
2022-10-19T17:43:00.508Z,1.50
2022-10-19T17:47:59.145Z,1.77
2022-10-19T17:52:58.187Z,2.65
2022-10-19T17:57:56.822Z,2.15
2022-10-19T18:02:55.552Z,2.40
2022-10-19T18:07:54.444Z,2.25
2022-10-19T18:12:53.098Z,2.30
2022-10-19T18:17:51.714Z,2.35
2022-10-19T18:22:50.402Z,3.80
2022-10-19T18:27:49.192Z,2.75
2022-10-19T18:32:51.033Z,2.17
2022-10-19T18:37:49.814Z,2.80
2022-10-19T18:42:48.480Z,2.78
2022-10-19T18:47:47.182Z,2.67
2022-10-19T18:52:45.880Z,2.78
2022-10-19T18:57:44.597Z,4.55
2022-10-19T19:02:46.981Z,7.82
2022-10-19T19:07:46.627Z,7.97
2022-10-19T19:12:45.339Z,6.15
2022-10-19T19:17:44.168Z,6.43
2022-10-19T19:22:42.822Z,5.30
2022-10-19T19:27:41.461Z,4.38
2022-10-19T19:32:41.105Z,3.97
2022-10-19T19:37:39.874Z,2.97
2022-10-19T19:42:38.515Z,4.07
2022-10-19T19:47:37.466Z,4.13
2022-10-19T19:52:40.252Z,3.92
2022-10-19T19:57:39.258Z,3.90
2022-10-19T20:02:39.284Z,4.07
2022-10-19T20:07:38.169Z,4.10
2022-10-19T20:12:37.003Z,4.25
2022-10-19T20:17:36.011Z,4.47
2022-10-19T20:22:35.226Z,4.78
2022-10-19T20:27:37.389Z,4.90
2022-10-19T20:32:36.516Z,5.10
2022-10-19T20:37:35.570Z,5.53
2022-10-19T20:42:34.420Z,5.60
2022-10-19T20:47:33.400Z,5.00
2022-10-19T20:52:33.778Z,4.50
2022-10-19T20:57:32.678Z,4.95
2022-10-19T21:02:31.294Z,4.43
2022-10-19T21:07:30.139Z,4.55
2022-10-19T21:12:28.848Z,4.78
2022-10-19T21:17:27.657Z,4.13
2022-10-19T21:22:26.708Z,4.53
2022-10-19T21:27:25.418Z,4.50
2022-10-19T21:32:24.158Z,4.43
2022-10-19T21:37:23.021Z,4.90
2022-10-19T21:42:21.616Z,4.82
2022-10-19T21:47:20.264Z,4.60
2022-10-19T21:52:18.905Z,4.15
2022-10-19T21:57:17.599Z,4.22
2022-10-19T22:02:16.378Z,4.30
2022-10-19T22:07:15.206Z,4.50
2022-10-19T22:17:17.776Z,4.55
2022-10-19T22:22:16.695Z,5.07
2022-10-19T22:27:15.527Z,4.80
2022-10-19T22:32:14.332Z,5.18
2022-10-19T22:37:13.010Z,4.82
2022-10-19T22:42:11.663Z,4.63
2022-10-19T22:47:10.437Z,5.28
2022-10-19T22:52:09.137Z,5.13
2022-10-19T22:57:08.147Z,5.65
2022-10-19T23:02:07.011Z,4.68
2022-10-19T23:07:05.807Z,2.78
2022-10-19T23:12:04.968Z,2.70
2022-10-19T23:17:03.622Z,2.30
2022-10-19T23:22:02.262Z,2.50
2022-10-19T23:27:00.961Z,2.83
2022-10-19T23:31:59.581Z,2.45
2022-10-19T23:36:58.617Z,2.13
2022-10-19T23:41:57.434Z,2.22
2022-10-19T23:46:56.199Z,2.60
2022-10-19T23:51:54.974Z,2.72
2022-10-19T23:56:53.699Z,2.60
